sensor_id;sensor_type;location;lat;lon;timestamp;P1;durP1;ratioP1;P2;durP2;ratioP2
51852;SDS011;37894;53.172;6.598;2023-07-30T00:01:42;23.83;;;7.03;;
51852;SDS011;37894;53.172;6.598;2023-07-30T00:04:08;20.02;;;6.28;;
51852;SDS011;37894;53.172;6.598;2023-07-30T00:06:33;21.63;;;7.30;;
51852;SDS011;37894;53.172;6.598;2023-07-30T00:08:59;22.42;;;6.88;;
51852;SDS011;37894;53.172;6.598;2023-07-30T00:11:25;19.63;;;7.00;;
51852;SDS011;37894;53.172;6.598;2023-07-30T00:13:50;17.20;;;6.43;;
51852;SDS011;37894;53.172;6.598;2023-07-30T00:16:16;20.40;;;6.57;;
51852;SDS011;37894;53.172;6.598;2023-07-30T00:18:42;16.83;;;6.00;;
51852;SDS011;37894;53.172;6.598;2023-07-30T00:21:07;17.88;;;6.78;;
51852;SDS011;37894;53.172;6.598;2023-07-30T00:23:33;18.92;;;6.60;;
51852;SDS011;37894;53.172;6.598;2023-07-30T00:25:59;16.13;;;6.72;;
51852;SDS011;37894;53.172;6.598;2023-07-30T00:28:24;22.60;;;6.60;;
51852;SDS011;37894;53.172;6.598;2023-07-30T00:30:50;22.13;;;6.55;;
51852;SDS011;37894;53.172;6.598;2023-07-30T00:33:16;25.75;;;7.45;;
51852;SDS011;37894;53.172;6.598;2023-07-30T00:35:41;18.05;;;6.43;;
51852;SDS011;37894;53.172;6.598;2023-07-30T00:38:07;21.90;;;6.70;;
51852;SDS011;37894;53.172;6.598;2023-07-30T00:40:32;29.98;;;8.02;;
51852;SDS011;37894;53.172;6.598;2023-07-30T00:43:04;25.33;;;6.73;;
51852;SDS011;37894;53.172;6.598;2023-07-30T00:45:30;21.83;;;5.95;;
51852;SDS011;37894;53.172;6.598;2023-07-30T00:47:56;20.92;;;7.10;;
51852;SDS011;37894;53.172;6.598;2023-07-30T00:50:21;22.17;;;6.47;;
51852;SDS011;37894;53.172;6.598;2023-07-30T00:52:47;17.77;;;6.93;;
51852;SDS011;37894;53.172;6.598;2023-07-30T00:55:13;18.30;;;6.03;;
51852;SDS011;37894;53.172;6.598;2023-07-30T00:57:40;17.60;;;5.38;;
51852;SDS011;37894;53.172;6.598;2023-07-30T01:00:07;14.15;;;4.88;;
51852;SDS011;37894;53.172;6.598;2023-07-30T01:02:37;19.85;;;6.95;;
51852;SDS011;37894;53.172;6.598;2023-07-30T01:05:03;21.45;;;6.60;;
51852;SDS011;37894;53.172;6.598;2023-07-30T01:07:30;19.45;;;5.53;;
51852;SDS011;37894;53.172;6.598;2023-07-30T01:09:56;16.63;;;5.80;;
51852;SDS011;37894;53.172;6.598;2023-07-30T01:12:22;15.88;;;5.97;;
51852;SDS011;37894;53.172;6.598;2023-07-30T01:14:48;22.25;;;5.95;;
51852;SDS011;37894;53.172;6.598;2023-07-30T01:17:15;18.73;;;5.70;;
51852;SDS011;37894;53.172;6.598;2023-07-30T01:19:41;16.45;;;5.75;;
51852;SDS011;37894;53.172;6.598;2023-07-30T01:22:07;22.77;;;6.55;;
51852;SDS011;37894;53.172;6.598;2023-07-30T01:24:32;18.80;;;5.75;;
51852;SDS011;37894;53.172;6.598;2023-07-30T01:27:02;22.65;;;7.20;;
51852;SDS011;37894;53.172;6.598;2023-07-30T01:29:40;22.13;;;6.03;;
51852;SDS011;37894;53.172;6.598;2023-07-30T01:32:15;20.80;;;6.53;;
51852;SDS011;37894;53.172;6.598;2023-07-30T01:34:44;21.38;;;5.30;;
51852;SDS011;37894;53.172;6.598;2023-07-30T01:37:12;16.08;;;6.13;;
51852;SDS011;37894;53.172;6.598;2023-07-30T01:39:39;23.90;;;6.03;;
51852;SDS011;37894;53.172;6.598;2023-07-30T01:42:07;25.98;;;6.03;;
51852;SDS011;37894;53.172;6.598;2023-07-30T01:44:33;19.20;;;6.13;;
51852;SDS011;37894;53.172;6.598;2023-07-30T01:46:58;19.83;;;5.70;;
51852;SDS011;37894;53.172;6.598;2023-07-30T01:49:24;16.63;;;5.70;;
51852;SDS011;37894;53.172;6.598;2023-07-30T01:51:50;19.92;;;6.07;;
51852;SDS011;37894;53.172;6.598;2023-07-30T01:54:15;17.10;;;5.95;;
51852;SDS011;37894;53.172;6.598;2023-07-30T01:56:41;22.80;;;6.43;;
51852;SDS011;37894;53.172;6.598;2023-07-30T01:59:07;27.15;;;6.32;;
51852;SDS011;37894;53.172;6.598;2023-07-30T02:01:32;14.70;;;5.35;;
51852;SDS011;37894;53.172;6.598;2023-07-30T02:03:58;21.58;;;5.97;;
51852;SDS011;37894;53.172;6.598;2023-07-30T02:06:23;19.10;;;6.63;;
51852;SDS011;37894;53.172;6.598;2023-07-30T02:08:49;17.42;;;6.10;;
51852;SDS011;37894;53.172;6.598;2023-07-30T02:11:15;20.90;;;6.03;;
51852;SDS011;37894;53.172;6.598;2023-07-30T02:13:40;20.90;;;5.38;;
51852;SDS011;37894;53.172;6.598;2023-07-30T02:16:07;22.83;;;6.75;;
51852;SDS011;37894;53.172;6.598;2023-07-30T02:18:33;16.77;;;5.22;;
51852;SDS011;37894;53.172;6.598;2023-07-30T02:20:59;21.13;;;6.97;;
51852;SDS011;37894;53.172;6.598;2023-07-30T02:23:24;26.98;;;6.43;;
51852;SDS011;37894;53.172;6.598;2023-07-30T02:25:50;16.55;;;5.38;;
51852;SDS011;37894;53.172;6.598;2023-07-30T02:28:16;20.90;;;5.90;;
51852;SDS011;37894;53.172;6.598;2023-07-30T02:30:41;28.25;;;5.45;;
51852;SDS011;37894;53.172;6.598;2023-07-30T02:33:07;20.92;;;5.53;;
51852;SDS011;37894;53.172;6.598;2023-07-30T02:35:33;18.98;;;5.55;;
51852;SDS011;37894;53.172;6.598;2023-07-30T02:37:58;29.75;;;5.40;;
51852;SDS011;37894;53.172;6.598;2023-07-30T02:40:24;26.40;;;5.78;;
51852;SDS011;37894;53.172;6.598;2023-07-30T02:42:50;27.63;;;6.13;;
51852;SDS011;37894;53.172;6.598;2023-07-30T02:45:15;22.65;;;5.57;;
51852;SDS011;37894;53.172;6.598;2023-07-30T02:47:42;19.45;;;5.82;;
51852;SDS011;37894;53.172;6.598;2023-07-30T02:50:08;23.10;;;5.45;;
51852;SDS011;37894;53.172;6.598;2023-07-30T02:52:34;19.23;;;5.40;;
51852;SDS011;37894;53.172;6.598;2023-07-30T02:54:59;14.35;;;5.22;;
51852;SDS011;37894;53.172;6.598;2023-07-30T02:57:25;21.52;;;5.28;;
51852;SDS011;37894;53.172;6.598;2023-07-30T02:59:51;19.27;;;5.07;;
51852;SDS011;37894;53.172;6.598;2023-07-30T03:02:16;20.40;;;6.30;;
51852;SDS011;37894;53.172;6.598;2023-07-30T03:04:42;20.58;;;6.57;;
51852;SDS011;37894;53.172;6.598;2023-07-30T03:07:08;18.50;;;5.63;;
51852;SDS011;37894;53.172;6.598;2023-07-30T03:09:34;22.48;;;5.75;;
51852;SDS011;37894;53.172;6.598;2023-07-30T03:12:00;16.88;;;4.95;;
51852;SDS011;37894;53.172;6.598;2023-07-30T03:14:26;19.65;;;5.10;;
51852;SDS011;37894;53.172;6.598;2023-07-30T03:16:51;27.30;;;6.45;;
51852;SDS011;37894;53.172;6.598;2023-07-30T03:19:17;20.63;;;5.78;;
51852;SDS011;37894;53.172;6.598;2023-07-30T03:21:43;22.58;;;6.25;;
51852;SDS011;37894;53.172;6.598;2023-07-30T03:24:08;25.80;;;5.88;;
51852;SDS011;37894;53.172;6.598;2023-07-30T03:26:34;17.58;;;5.30;;
51852;SDS011;37894;53.172;6.598;2023-07-30T03:29:00;18.48;;;5.05;;
51852;SDS011;37894;53.172;6.598;2023-07-30T03:31:25;29.52;;;6.40;;
51852;SDS011;37894;53.172;6.598;2023-07-30T03:33:53;19.83;;;5.97;;
51852;SDS011;37894;53.172;6.598;2023-07-30T03:36:19;23.38;;;6.18;;
51852;SDS011;37894;53.172;6.598;2023-07-30T03:38:45;26.70;;;5.82;;
51852;SDS011;37894;53.172;6.598;2023-07-30T03:41:10;21.70;;;5.80;;
51852;SDS011;37894;53.172;6.598;2023-07-30T03:43:36;18.58;;;5.85;;
51852;SDS011;37894;53.172;6.598;2023-07-30T03:46:02;20.02;;;5.22;;
51852;SDS011;37894;53.172;6.598;2023-07-30T03:48:28;20.10;;;6.80;;
51852;SDS011;37894;53.172;6.598;2023-07-30T03:50:54;20.60;;;5.85;;
51852;SDS011;37894;53.172;6.598;2023-07-30T03:53:20;23.48;;;5.57;;
51852;SDS011;37894;53.172;6.598;2023-07-30T03:55:46;20.88;;;5.15;;
51852;SDS011;37894;53.172;6.598;2023-07-30T03:58:11;20.75;;;5.75;;
51852;SDS011;37894;53.172;6.598;2023-07-30T04:00:37;25.58;;;6.68;;
51852;SDS011;37894;53.172;6.598;2023-07-30T04:03:03;17.80;;;5.43;;
51852;SDS011;37894;53.172;6.598;2023-07-30T04:05:29;21.33;;;6.40;;
51852;SDS011;37894;53.172;6.598;2023-07-30T04:07:55;22.85;;;5.70;;
51852;SDS011;37894;53.172;6.598;2023-07-30T04:10:21;20.38;;;6.20;;
51852;SDS011;37894;53.172;6.598;2023-07-30T04:12:47;16.05;;;4.82;;
51852;SDS011;37894;53.172;6.598;2023-07-30T04:15:14;21.42;;;5.93;;
51852;SDS011;37894;53.172;6.598;2023-07-30T04:17:40;14.63;;;4.90;;
51852;SDS011;37894;53.172;6.598;2023-07-30T04:20:07;19.33;;;5.43;;
51852;SDS011;37894;53.172;6.598;2023-07-30T04:22:34;21.67;;;5.57;;
51852;SDS011;37894;53.172;6.598;2023-07-30T04:25:03;21.95;;;5.25;;
51852;SDS011;37894;53.172;6.598;2023-07-30T04:27:29;20.83;;;5.22;;
51852;SDS011;37894;53.172;6.598;2023-07-30T04:29:55;17.08;;;5.38;;
51852;SDS011;37894;53.172;6.598;2023-07-30T04:32:20;24.02;;;5.72;;
51852;SDS011;37894;53.172;6.598;2023-07-30T04:34:46;16.05;;;4.95;;
51852;SDS011;37894;53.172;6.598;2023-07-30T04:37:12;16.95;;;5.57;;
51852;SDS011;37894;53.172;6.598;2023-07-30T04:39:38;23.92;;;4.95;;
51852;SDS011;37894;53.172;6.598;2023-07-30T04:42:03;17.85;;;5.85;;
51852;SDS011;37894;53.172;6.598;2023-07-30T04:44:29;20.60;;;5.07;;
51852;SDS011;37894;53.172;6.598;2023-07-30T04:46:55;22.05;;;5.10;;
51852;SDS011;37894;53.172;6.598;2023-07-30T04:49:21;20.27;;;5.38;;
51852;SDS011;37894;53.172;6.598;2023-07-30T04:51:46;15.07;;;5.25;;
51852;SDS011;37894;53.172;6.598;2023-07-30T04:54:12;20.02;;;5.18;;
51852;SDS011;37894;53.172;6.598;2023-07-30T04:56:38;17.85;;;4.78;;
51852;SDS011;37894;53.172;6.598;2023-07-30T04:59:03;18.10;;;4.93;;
51852;SDS011;37894;53.172;6.598;2023-07-30T05:01:29;17.23;;;5.10;;
51852;SDS011;37894;53.172;6.598;2023-07-30T05:03:56;17.48;;;5.35;;
51852;SDS011;37894;53.172;6.598;2023-07-30T05:06:22;18.45;;;5.20;;
51852;SDS011;37894;53.172;6.598;2023-07-30T05:08:48;20.42;;;4.75;;
51852;SDS011;37894;53.172;6.598;2023-07-30T05:11:13;13.82;;;4.68;;
51852;SDS011;37894;53.172;6.598;2023-07-30T05:13:39;19.63;;;4.93;;
51852;SDS011;37894;53.172;6.598;2023-07-30T05:16:05;17.95;;;5.20;;
51852;SDS011;37894;53.172;6.598;2023-07-30T05:18:31;16.90;;;5.30;;
51852;SDS011;37894;53.172;6.598;2023-07-30T05:20:57;19.45;;;5.10;;
51852;SDS011;37894;53.172;6.598;2023-07-30T05:23:23;16.52;;;4.85;;
51852;SDS011;37894;53.172;6.598;2023-07-30T05:25:48;15.45;;;4.35;;
51852;SDS011;37894;53.172;6.598;2023-07-30T05:28:14;11.82;;;4.45;;
51852;SDS011;37894;53.172;6.598;2023-07-30T05:30:40;13.55;;;4.45;;
51852;SDS011;37894;53.172;6.598;2023-07-30T05:33:06;18.45;;;5.20;;
51852;SDS011;37894;53.172;6.598;2023-07-30T05:35:31;17.60;;;4.18;;
51852;SDS011;37894;53.172;6.598;2023-07-30T05:37:57;17.20;;;4.88;;
51852;SDS011;37894;53.172;6.598;2023-07-30T05:40:23;21.10;;;4.82;;
51852;SDS011;37894;53.172;6.598;2023-07-30T05:42:48;18.75;;;4.82;;
51852;SDS011;37894;53.172;6.598;2023-07-30T05:45:14;16.02;;;4.30;;
51852;SDS011;37894;53.172;6.598;2023-07-30T05:47:40;17.23;;;4.07;;
51852;SDS011;37894;53.172;6.598;2023-07-30T05:50:08;20.48;;;4.85;;
51852;SDS011;37894;53.172;6.598;2023-07-30T05:52:34;16.23;;;4.25;;
51852;SDS011;37894;53.172;6.598;2023-07-30T05:55:00;16.98;;;4.72;;
51852;SDS011;37894;53.172;6.598;2023-07-30T05:57:26;12.70;;;3.67;;
51852;SDS011;37894;53.172;6.598;2023-07-30T05:59:51;14.63;;;3.88;;
51852;SDS011;37894;53.172;6.598;2023-07-30T06:02:17;16.10;;;4.72;;
51852;SDS011;37894;53.172;6.598;2023-07-30T06:04:43;19.25;;;4.65;;
51852;SDS011;37894;53.172;6.598;2023-07-30T06:07:09;11.82;;;4.22;;
51852;SDS011;37894;53.172;6.598;2023-07-30T06:09:35;18.92;;;3.92;;
51852;SDS011;37894;53.172;6.598;2023-07-30T06:12:00;16.58;;;3.75;;
51852;SDS011;37894;53.172;6.598;2023-07-30T06:14:26;19.23;;;4.47;;
51852;SDS011;37894;53.172;6.598;2023-07-30T06:16:52;21.13;;;4.03;;
51852;SDS011;37894;53.172;6.598;2023-07-30T06:19:18;18.13;;;4.30;;
51852;SDS011;37894;53.172;6.598;2023-07-30T06:21:44;15.60;;;3.80;;
51852;SDS011;37894;53.172;6.598;2023-07-30T06:24:10;20.75;;;3.85;;
51852;SDS011;37894;53.172;6.598;2023-07-30T06:26:36;14.57;;;4.55;;
51852;SDS011;37894;53.172;6.598;2023-07-30T06:29:02;12.73;;;3.97;;
51852;SDS011;37894;53.172;6.598;2023-07-30T06:31:28;16.38;;;3.95;;
51852;SDS011;37894;53.172;6.598;2023-07-30T06:33:53;18.45;;;4.53;;
51852;SDS011;37894;53.172;6.598;2023-07-30T06:36:19;12.80;;;3.70;;
51852;SDS011;37894;53.172;6.598;2023-07-30T06:38:45;17.10;;;4.28;;
51852;SDS011;37894;53.172;6.598;2023-07-30T06:41:10;14.38;;;3.45;;
51852;SDS011;37894;53.172;6.598;2023-07-30T06:43:36;13.98;;;4.05;;
51852;SDS011;37894;53.172;6.598;2023-07-30T06:46:02;20.33;;;4.75;;
51852;SDS011;37894;53.172;6.598;2023-07-30T06:48:27;15.60;;;4.18;;
51852;SDS011;37894;53.172;6.598;2023-07-30T06:50:53;12.88;;;4.15;;
51852;SDS011;37894;53.172;6.598;2023-07-30T06:53:19;13.57;;;3.83;;
51852;SDS011;37894;53.172;6.598;2023-07-30T06:55:47;15.35;;;3.65;;
51852;SDS011;37894;53.172;6.598;2023-07-30T06:58:13;10.57;;;3.22;;
51852;SDS011;37894;53.172;6.598;2023-07-30T07:00:39;15.00;;;3.40;;
51852;SDS011;37894;53.172;6.598;2023-07-30T07:03:05;13.48;;;3.53;;
51852;SDS011;37894;53.172;6.598;2023-07-30T07:05:30;14.48;;;4.00;;
51852;SDS011;37894;53.172;6.598;2023-07-30T07:07:56;14.52;;;3.25;;
51852;SDS011;37894;53.172;6.598;2023-07-30T07:10:22;12.48;;;3.10;;
51852;SDS011;37894;53.172;6.598;2023-07-30T07:12:47;12.55;;;2.90;;
51852;SDS011;37894;53.172;6.598;2023-07-30T07:15:13;8.45;;;2.83;;
51852;SDS011;37894;53.172;6.598;2023-07-30T07:17:39;15.40;;;3.85;;
51852;SDS011;37894;53.172;6.598;2023-07-30T07:20:05;12.45;;;2.92;;
51852;SDS011;37894;53.172;6.598;2023-07-30T07:22:32;12.70;;;3.00;;
51852;SDS011;37894;53.172;6.598;2023-07-30T07:24:58;10.63;;;2.55;;
51852;SDS011;37894;53.172;6.598;2023-07-30T07:27:24;10.93;;;2.53;;
51852;SDS011;37894;53.172;6.598;2023-07-30T07:29:50;14.10;;;3.25;;
51852;SDS011;37894;53.172;6.598;2023-07-30T07:32:16;11.52;;;3.13;;
51852;SDS011;37894;53.172;6.598;2023-07-30T07:34:48;10.23;;;2.72;;
51852;SDS011;37894;53.172;6.598;2023-07-30T07:39:42;11.80;;;2.88;;
51852;SDS011;37894;53.172;6.598;2023-07-30T07:42:08;11.43;;;2.45;;
51852;SDS011;37894;53.172;6.598;2023-07-30T07:44:34;11.15;;;2.40;;
51852;SDS011;37894;53.172;6.598;2023-07-30T07:47:00;14.13;;;2.72;;
51852;SDS011;37894;53.172;6.598;2023-07-30T07:49:26;11.45;;;3.00;;
51852;SDS011;37894;53.172;6.598;2023-07-30T07:51:51;11.27;;;2.58;;
51852;SDS011;37894;53.172;6.598;2023-07-30T07:54:17;12.07;;;2.50;;
51852;SDS011;37894;53.172;6.598;2023-07-30T07:56:43;14.27;;;2.75;;
51852;SDS011;37894;53.172;6.598;2023-07-30T07:59:08;7.85;;;2.00;;
51852;SDS011;37894;53.172;6.598;2023-07-30T08:01:34;12.27;;;2.20;;
51852;SDS011;37894;53.172;6.598;2023-07-30T08:04:00;6.72;;;1.75;;
51852;SDS011;37894;53.172;6.598;2023-07-30T08:06:25;8.77;;;2.13;;
51852;SDS011;37894;53.172;6.598;2023-07-30T08:08:51;7.70;;;3.05;;
51852;SDS011;37894;53.172;6.598;2023-07-30T08:11:17;13.02;;;2.97;;
51852;SDS011;37894;53.172;6.598;2023-07-30T08:13:42;13.23;;;2.70;;
51852;SDS011;37894;53.172;6.598;2023-07-30T08:16:08;8.90;;;2.13;;
51852;SDS011;37894;53.172;6.598;2023-07-30T08:18:34;10.05;;;2.55;;
51852;SDS011;37894;53.172;6.598;2023-07-30T08:21:00;15.70;;;2.67;;
51852;SDS011;37894;53.172;6.598;2023-07-30T08:23:26;10.55;;;1.70;;
51852;SDS011;37894;53.172;6.598;2023-07-30T08:25:51;8.00;;;2.00;;
51852;SDS011;37894;53.172;6.598;2023-07-30T08:28:17;7.85;;;2.10;;
51852;SDS011;37894;53.172;6.598;2023-07-30T08:30:43;9.10;;;2.33;;
51852;SDS011;37894;53.172;6.598;2023-07-30T08:33:09;9.57;;;1.95;;
51852;SDS011;37894;53.172;6.598;2023-07-30T08:35:35;8.75;;;1.85;;
51852;SDS011;37894;53.172;6.598;2023-07-30T08:38:00;7.72;;;1.75;;
51852;SDS011;37894;53.172;6.598;2023-07-30T08:40:26;8.82;;;1.80;;
51852;SDS011;37894;53.172;6.598;2023-07-30T08:42:52;7.82;;;1.85;;
51852;SDS011;37894;53.172;6.598;2023-07-30T08:45:19;8.60;;;2.00;;
51852;SDS011;37894;53.172;6.598;2023-07-30T08:47:46;7.10;;;1.70;;
51852;SDS011;37894;53.172;6.598;2023-07-30T08:50:12;12.20;;;2.70;;
51852;SDS011;37894;53.172;6.598;2023-07-30T08:52:38;8.18;;;1.73;;
51852;SDS011;37894;53.172;6.598;2023-07-30T08:55:05;7.43;;;1.90;;
51852;SDS011;37894;53.172;6.598;2023-07-30T08:57:31;5.97;;;1.70;;
51852;SDS011;37894;53.172;6.598;2023-07-30T09:00:10;9.18;;;2.22;;
51852;SDS011;37894;53.172;6.598;2023-07-30T09:02:38;7.07;;;1.80;;
51852;SDS011;37894;53.172;6.598;2023-07-30T09:05:08;6.75;;;1.85;;
51852;SDS011;37894;53.172;6.598;2023-07-30T09:07:34;8.13;;;1.95;;
51852;SDS011;37894;53.172;6.598;2023-07-30T09:10:00;9.63;;;2.20;;
51852;SDS011;37894;53.172;6.598;2023-07-30T09:12:28;7.22;;;1.65;;
51852;SDS011;37894;53.172;6.598;2023-07-30T09:14:57;7.72;;;2.08;;
51852;SDS011;37894;53.172;6.598;2023-07-30T09:17:24;6.57;;;1.77;;
51852;SDS011;37894;53.172;6.598;2023-07-30T09:19:51;7.82;;;1.80;;
51852;SDS011;37894;53.172;6.598;2023-07-30T09:22:35;8.55;;;2.33;;
51852;SDS011;37894;53.172;6.598;2023-07-30T09:25:04;7.82;;;1.70;;
51852;SDS011;37894;53.172;6.598;2023-07-30T09:27:30;9.43;;;2.28;;
51852;SDS011;37894;53.172;6.598;2023-07-30T09:30:01;8.68;;;1.60;;
51852;SDS011;37894;53.172;6.598;2023-07-30T09:32:31;8.07;;;1.73;;
51852;SDS011;37894;53.172;6.598;2023-07-30T09:35:04;8.57;;;2.00;;
51852;SDS011;37894;53.172;6.598;2023-07-30T09:37:38;10.60;;;2.70;;
51852;SDS011;37894;53.172;6.598;2023-07-30T09:40:06;7.80;;;1.85;;
51852;SDS011;37894;53.172;6.598;2023-07-30T09:42:33;9.68;;;2.17;;
51852;SDS011;37894;53.172;6.598;2023-07-30T09:45:03;8.10;;;2.50;;
51852;SDS011;37894;53.172;6.598;2023-07-30T09:47:32;6.45;;;1.90;;
51852;SDS011;37894;53.172;6.598;2023-07-30T09:50:00;5.20;;;1.67;;
51852;SDS011;37894;53.172;6.598;2023-07-30T09:52:26;10.80;;;2.10;;
51852;SDS011;37894;53.172;6.598;2023-07-30T09:54:53;6.32;;;1.90;;
51852;SDS011;37894;53.172;6.598;2023-07-30T09:57:20;6.20;;;2.05;;
51852;SDS011;37894;53.172;6.598;2023-07-30T09:59:46;4.40;;;1.85;;
51852;SDS011;37894;53.172;6.598;2023-07-30T10:02:12;3.33;;;1.13;;
51852;SDS011;37894;53.172;6.598;2023-07-30T10:04:40;7.57;;;1.60;;
51852;SDS011;37894;53.172;6.598;2023-07-30T10:07:10;6.32;;;1.42;;
51852;SDS011;37894;53.172;6.598;2023-07-30T10:09:41;4.57;;;1.63;;
51852;SDS011;37894;53.172;6.598;2023-07-30T10:12:13;5.75;;;1.23;;
51852;SDS011;37894;53.172;6.598;2023-07-30T10:14:45;5.00;;;1.35;;
51852;SDS011;37894;53.172;6.598;2023-07-30T10:17:11;5.63;;;1.50;;
51852;SDS011;37894;53.172;6.598;2023-07-30T10:19:37;6.88;;;1.50;;
51852;SDS011;37894;53.172;6.598;2023-07-30T10:24:38;6.95;;;1.50;;
51852;SDS011;37894;53.172;6.598;2023-07-30T10:27:08;4.78;;;1.30;;
51852;SDS011;37894;53.172;6.598;2023-07-30T10:29:35;7.85;;;1.48;;
51852;SDS011;37894;53.172;6.598;2023-07-30T10:32:01;5.63;;;1.92;;
51852;SDS011;37894;53.172;6.598;2023-07-30T10:34:43;5.88;;;1.52;;
51852;SDS011;37894;53.172;6.598;2023-07-30T10:37:10;5.00;;;1.40;;
51852;SDS011;37894;53.172;6.598;2023-07-30T10:39:36;5.97;;;1.33;;
51852;SDS011;37894;53.172;6.598;2023-07-30T10:42:01;9.43;;;2.40;;
51852;SDS011;37894;53.172;6.598;2023-07-30T10:44:28;8.93;;;2.05;;
51852;SDS011;37894;53.172;6.598;2023-07-30T10:50:22;8.82;;;1.80;;
51852;SDS011;37894;53.172;6.598;2023-07-30T10:52:47;7.63;;;1.70;;
51852;SDS011;37894;53.172;6.598;2023-07-30T10:55:13;7.25;;;1.85;;
51852;SDS011;37894;53.172;6.598;2023-07-30T10:57:39;5.45;;;1.70;;
51852;SDS011;37894;53.172;6.598;2023-07-30T11:02:31;7.78;;;2.65;;
51852;SDS011;37894;53.172;6.598;2023-07-30T11:04:56;7.80;;;1.80;;
51852;SDS011;37894;53.172;6.598;2023-07-30T11:07:22;8.05;;;1.88;;
51852;SDS011;37894;53.172;6.598;2023-07-30T11:09:57;8.00;;;1.80;;
51852;SDS011;37894;53.172;6.598;2023-07-30T11:12:24;8.95;;;2.20;;
51852;SDS011;37894;53.172;6.598;2023-07-30T11:14:51;7.10;;;2.00;;
51852;SDS011;37894;53.172;6.598;2023-07-30T11:17:17;8.43;;;2.00;;
51852;SDS011;37894;53.172;6.598;2023-07-30T11:19:43;8.95;;;2.17;;
51852;SDS011;37894;53.172;6.598;2023-07-30T11:22:09;7.57;;;2.10;;
51852;SDS011;37894;53.172;6.598;2023-07-30T11:24:35;6.18;;;1.90;;
51852;SDS011;37894;53.172;6.598;2023-07-30T11:27:02;7.78;;;2.28;;
51852;SDS011;37894;53.172;6.598;2023-07-30T11:29:28;8.05;;;2.38;;
51852;SDS011;37894;53.172;6.598;2023-07-30T11:31:57;8.98;;;2.20;;
51852;SDS011;37894;53.172;6.598;2023-07-30T11:34:24;10.00;;;2.05;;
51852;SDS011;37894;53.172;6.598;2023-07-30T11:36:51;7.03;;;1.90;;
51852;SDS011;37894;53.172;6.598;2023-07-30T11:39:18;7.25;;;2.13;;
51852;SDS011;37894;53.172;6.598;2023-07-30T11:41:44;6.78;;;1.50;;
51852;SDS011;37894;53.172;6.598;2023-07-30T11:44:28;9.38;;;1.83;;
51852;SDS011;37894;53.172;6.598;2023-07-30T11:46:55;7.18;;;1.88;;
51852;SDS011;37894;53.172;6.598;2023-07-30T11:49:21;8.27;;;1.73;;
51852;SDS011;37894;53.172;6.598;2023-07-30T11:51:46;10.63;;;1.70;;
51852;SDS011;37894;53.172;6.598;2023-07-30T11:54:22;12.18;;;2.42;;
51852;SDS011;37894;53.172;6.598;2023-07-30T11:56:55;6.82;;;1.98;;
51852;SDS011;37894;53.172;6.598;2023-07-30T11:59:21;5.43;;;1.60;;
51852;SDS011;37894;53.172;6.598;2023-07-30T12:01:47;9.82;;;2.10;;
51852;SDS011;37894;53.172;6.598;2023-07-30T12:04:12;8.90;;;2.00;;
51852;SDS011;37894;53.172;6.598;2023-07-30T12:06:42;8.13;;;1.85;;
51852;SDS011;37894;53.172;6.598;2023-07-30T12:09:17;8.57;;;1.80;;
51852;SDS011;37894;53.172;6.598;2023-07-30T12:11:58;11.25;;;2.03;;
51852;SDS011;37894;53.172;6.598;2023-07-30T12:14:29;10.05;;;2.10;;
51852;SDS011;37894;53.172;6.598;2023-07-30T12:17:13;9.00;;;1.90;;
51852;SDS011;37894;53.172;6.598;2023-07-30T12:19:39;9.55;;;1.60;;
51852;SDS011;37894;53.172;6.598;2023-07-30T12:22:05;7.55;;;2.03;;
51852;SDS011;37894;53.172;6.598;2023-07-30T12:31:48;4.72;;;1.60;;
51852;SDS011;37894;53.172;6.598;2023-07-30T12:34:16;3.70;;;1.20;;
51852;SDS011;37894;53.172;6.598;2023-07-30T12:36:42;6.88;;;1.73;;
51852;SDS011;37894;53.172;6.598;2023-07-30T12:39:08;7.95;;;1.30;;
51852;SDS011;37894;53.172;6.598;2023-07-30T12:41:33;5.68;;;1.45;;
51852;SDS011;37894;53.172;6.598;2023-07-30T12:43:59;4.43;;;0.95;;
51852;SDS011;37894;53.172;6.598;2023-07-30T12:46:25;8.07;;;1.92;;
51852;SDS011;37894;53.172;6.598;2023-07-30T12:48:55;4.85;;;1.77;;
51852;SDS011;37894;53.172;6.598;2023-07-30T12:51:21;9.30;;;1.50;;
51852;SDS011;37894;53.172;6.598;2023-07-30T12:53:47;9.18;;;2.33;;
51852;SDS011;37894;53.172;6.598;2023-07-30T12:56:13;9.80;;;1.80;;
51852;SDS011;37894;53.172;6.598;2023-07-30T12:58:40;6.10;;;1.50;;
51852;SDS011;37894;53.172;6.598;2023-07-30T13:01:06;8.38;;;1.40;;
51852;SDS011;37894;53.172;6.598;2023-07-30T13:03:32;4.82;;;1.75;;
51852;SDS011;37894;53.172;6.598;2023-07-30T13:05:57;6.97;;;1.52;;
51852;SDS011;37894;53.172;6.598;2023-07-30T13:08:23;5.03;;;1.58;;
51852;SDS011;37894;53.172;6.598;2023-07-30T13:10:49;8.02;;;1.50;;
51852;SDS011;37894;53.172;6.598;2023-07-30T13:13:15;9.50;;;1.60;;
51852;SDS011;37894;53.172;6.598;2023-07-30T13:15:40;6.22;;;1.60;;
51852;SDS011;37894;53.172;6.598;2023-07-30T13:18:06;5.75;;;1.65;;
51852;SDS011;37894;53.172;6.598;2023-07-30T13:20:32;6.07;;;1.40;;
51852;SDS011;37894;53.172;6.598;2023-07-30T13:22:58;8.57;;;2.17;;
51852;SDS011;37894;53.172;6.598;2023-07-30T13:25:23;6.03;;;1.60;;
51852;SDS011;37894;53.172;6.598;2023-07-30T13:27:49;5.75;;;1.58;;
51852;SDS011;37894;53.172;6.598;2023-07-30T13:30:15;4.35;;;1.20;;
51852;SDS011;37894;53.172;6.598;2023-07-30T13:32:41;6.82;;;1.33;;
51852;SDS011;37894;53.172;6.598;2023-07-30T13:35:07;4.80;;;1.30;;
51852;SDS011;37894;53.172;6.598;2023-07-30T13:37:33;6.57;;;1.40;;
51852;SDS011;37894;53.172;6.598;2023-07-30T13:39:59;8.63;;;1.85;;
51852;SDS011;37894;53.172;6.598;2023-07-30T13:42:25;9.43;;;1.67;;
51852;SDS011;37894;53.172;6.598;2023-07-30T13:44:51;10.70;;;1.52;;
51852;SDS011;37894;53.172;6.598;2023-07-30T13:47:16;7.13;;;1.60;;
51852;SDS011;37894;53.172;6.598;2023-07-30T13:49:42;7.60;;;2.13;;
51852;SDS011;37894;53.172;6.598;2023-07-30T13:52:08;11.20;;;2.35;;
51852;SDS011;37894;53.172;6.598;2023-07-30T13:54:33;7.28;;;1.67;;
51852;SDS011;37894;53.172;6.598;2023-07-30T13:57:01;6.78;;;1.67;;
51852;SDS011;37894;53.172;6.598;2023-07-30T13:59:28;8.07;;;1.83;;
51852;SDS011;37894;53.172;6.598;2023-07-30T14:01:54;6.10;;;1.30;;
51852;SDS011;37894;53.172;6.598;2023-07-30T14:04:19;11.23;;;1.92;;
51852;SDS011;37894;53.172;6.598;2023-07-30T14:06:45;9.07;;;1.75;;
51852;SDS011;37894;53.172;6.598;2023-07-30T14:09:10;5.07;;;1.40;;
51852;SDS011;37894;53.172;6.598;2023-07-30T14:11:36;4.85;;;1.20;;
51852;SDS011;37894;53.172;6.598;2023-07-30T14:14:03;6.55;;;1.33;;
51852;SDS011;37894;53.172;6.598;2023-07-30T14:16:29;5.05;;;1.27;;
51852;SDS011;37894;53.172;6.598;2023-07-30T14:18:55;6.18;;;1.55;;
51852;SDS011;37894;53.172;6.598;2023-07-30T14:21:21;6.15;;;1.42;;
51852;SDS011;37894;53.172;6.598;2023-07-30T14:23:46;7.65;;;1.77;;
51852;SDS011;37894;53.172;6.598;2023-07-30T14:26:12;8.77;;;1.83;;
51852;SDS011;37894;53.172;6.598;2023-07-30T14:28:38;11.43;;;1.90;;
51852;SDS011;37894;53.172;6.598;2023-07-30T14:31:03;4.63;;;1.23;;
51852;SDS011;37894;53.172;6.598;2023-07-30T14:33:30;4.25;;;1.20;;
51852;SDS011;37894;53.172;6.598;2023-07-30T14:35:56;5.82;;;1.90;;
51852;SDS011;37894;53.172;6.598;2023-07-30T14:38:22;3.92;;;1.30;;
51852;SDS011;37894;53.172;6.598;2023-07-30T14:40:48;6.93;;;1.88;;
51852;SDS011;37894;53.172;6.598;2023-07-30T14:43:13;6.50;;;1.85;;
51852;SDS011;37894;53.172;6.598;2023-07-30T14:48:04;7.03;;;2.03;;
51852;SDS011;37894;53.172;6.598;2023-07-30T14:50:30;5.32;;;1.45;;
51852;SDS011;37894;53.172;6.598;2023-07-30T14:52:56;5.65;;;1.42;;
51852;SDS011;37894;53.172;6.598;2023-07-30T14:55:22;3.53;;;1.50;;
51852;SDS011;37894;53.172;6.598;2023-07-30T14:57:47;7.30;;;1.60;;